Time;durP1;ratioP1;P1;durP2;ratioP2;P2;SDS_P1;SDS_P2;PMS_P1;PMS_P2;Temp;Humidity;BMP_temperature;BMP_pressure;BME280_temperature;BME280_humidity;BME280_pressure;Samples;Min_cycle;Max_cycle;Signal;HPM_P1;HPM_P2
2024/02/22 00:01:05;;;;;;;16.08;7.85;;;;;;;4.26;67.25;99692.72;4939243;28;20047;-74
2024/02/22 00:03:31;;;;;;;14.20;8.25;;;;;;;4.47;67.62;99685.13;4933605;28;20039;-71
2024/02/22 00:05:57;;;;;;;16.08;8.32;;;;;;;4.41;68.04;99681.03;4942020;28;20034;-73
2024/02/22 00:08:24;;;;;;;14.27;8.18;;;;;;;4.16;68.58;99676.66;4931401;28;20097;-72
2024/02/22 00:10:51;;;;;;;11.05;7.80;;;;;;;4.87;66.46;99676.00;4937719;28;20134;-75
2024/02/22 00:13:16;;;;;;;10.32;7.88;;;;;;;4.80;66.41;99665.84;4909244;28;20771;-72
2024/02/22 00:15:44;;;;;;;10.32;7.78;;;;;;;5.09;65.46;99669.19;4921545;28;20431;-76
2024/02/22 00:18:10;;;;;;;14.18;7.32;;;;;;;4.58;67.62;99664.91;4917554;28;20041;-72
2024/02/22 00:20:35;;;;;;;12.75;7.40;;;;;;;4.43;68.47;99661.97;4927996;28;22303;-73
2024/02/22 00:23:02;;;;;;;9.43;7.00;;;;;;;5.07;66.11;99659.78;4932671;28;20066;-74
2024/02/22 00:25:28;;;;;;;8.02;6.03;;;;;;;4.86;66.76;99654.44;4914613;28;20050;-73
2024/02/22 00:27:53;;;;;;;8.60;6.72;;;;;;;4.13;69.09;99656.06;4879798;28;20031;-71
2024/02/22 00:30:20;;;;;;;9.85;6.43;;;;;;;4.47;68.40;99651.50;4853029;28;20043;-74
2024/02/22 00:32:46;;;;;;;10.43;6.68;;;;;;;4.54;67.75;99647.78;4884038;28;24591;-70
2024/02/22 00:35:12;;;;;;;10.80;7.82;;;;;;;4.88;67.33;99644.03;4882974;28;20296;-75
2024/02/22 00:37:37;;;;;;;9.40;6.75;;;;;;;4.82;66.63;99635.56;4872729;28;20401;-71
2024/02/22 00:40:04;;;;;;;8.68;6.00;;;;;;;4.70;67.44;99646.38;4908388;28;20186;-71
2024/02/22 00:42:32;;;;;;;11.32;6.50;;;;;;;4.55;68.29;99626.22;4918693;28;20062;-72
2024/02/22 00:44:58;;;;;;;11.07;7.60;;;;;;;4.95;67.26;99614.47;4924284;28;20019;-70
2024/02/22 00:47:23;;;;;;;11.40;6.05;;;;;;;5.05;66.78;99614.03;4932074;28;20030;-72
2024/02/22 00:49:50;;;;;;;10.18;6.85;;;;;;;4.39;69.03;99608.63;4940111;28;20042;-72
2024/02/22 00:52:16;;;;;;;8.77;5.55;;;;;;;4.77;67.80;99611.59;4916885;28;20145;-69
2024/02/22 00:54:43;;;;;;;9.05;7.18;;;;;;;4.45;68.12;99609.31;4885205;28;20045;-69
2024/02/22 00:57:08;;;;;;;10.35;5.47;;;;;;;5.27;66.28;99607.22;4940273;28;20047;-74
2024/02/22 00:59:34;;;;;;;10.32;6.20;;;;;;;5.05;66.56;99601.09;4928803;28;20653;-69
2024/02/22 01:02:01;;;;;;;5.97;5.05;;;;;;;5.07;66.70;99588.09;4932330;28;20054;-70
2024/02/22 01:04:27;;;;;;;9.40;5.65;;;;;;;5.17;66.49;99589.44;4912608;28;20038;-73
2024/02/22 01:06:54;;;;;;;8.18;5.05;;;;;;;5.23;66.05;99596.13;4938357;28;20042;-72
2024/02/22 01:09:20;;;;;;;8.32;5.65;;;;;;;5.06;66.68;99594.19;4941267;28;20132;-73
2024/02/22 01:11:46;;;;;;;6.35;4.97;;;;;;;4.89;67.34;99573.25;4938369;28;20035;-73
2024/02/22 01:14:12;;;;;;;8.10;5.70;;;;;;;4.63;67.92;99575.00;4940188;28;20085;-69
2024/02/22 01:16:39;;;;;;;6.75;5.05;;;;;;;4.75;67.61;99571.16;4931940;28;20133;-68
2024/02/22 01:19:04;;;;;;;6.90;5.30;;;;;;;5.05;67.02;99570.00;4942307;28;20038;-70
2024/02/22 01:21:30;;;;;;;7.85;4.97;;;;;;;5.39;65.62;99570.47;4929883;28;20509;-72
2024/02/22 01:23:56;;;;;;;7.13;5.13;;;;;;;5.33;65.91;99562.97;4939950;28;20124;-71
2024/02/22 01:26:22;;;;;;;6.60;4.35;;;;;;;5.23;66.51;99565.91;4937979;28;20109;-70
2024/02/22 01:28:49;;;;;;;8.57;4.82;;;;;;;5.40;65.90;99565.22;4920153;28;20026;-72
2024/02/22 01:31:14;;;;;;;6.60;4.20;;;;;;;5.20;66.83;99563.41;4939352;28;20955;-71
2024/02/22 01:33:40;;;;;;;5.93;4.82;;;;;;;5.61;65.31;99554.91;4930400;28;20038;-70
2024/02/22 01:36:07;;;;;;;4.75;4.20;;;;;;;5.38;65.85;99558.44;4938357;28;20042;-71
2024/02/22 01:38:35;;;;;;;6.43;4.40;;;;;;;4.90;67.92;99555.09;4931365;28;20038;-72
2024/02/22 01:41:01;;;;;;;7.20;4.63;;;;;;;4.84;67.79;99550.94;4938262;28;20055;-71
2024/02/22 01:43:27;;;;;;;7.82;5.05;;;;;;;5.36;66.53;99552.47;4953830;28;20026;-70
2024/02/22 01:45:53;;;;;;;9.82;4.75;;;;;;;4.95;67.65;99541.97;4972875;28;20027;-70
2024/02/22 01:48:18;;;;;;;5.90;4.13;;;;;;;5.41;66.67;99534.97;4970496;28;20035;-70
2024/02/22 01:50:45;;;;;;;7.95;4.43;;;;;;;5.22;67.33;99540.88;4931562;28;20190;-68
2024/02/22 01:53:12;;;;;;;4.93;3.70;;;;;;;5.32;67.01;99531.00;4893993;28;20364;-70
2024/02/22 01:55:39;;;;;;;5.38;3.58;;;;;;;5.38;66.66;99530.75;4860804;28;20054;-71
2024/02/22 01:58:05;;;;;;;4.97;4.00;;;;;;;5.58;66.24;99529.13;4846855;28;20157;-71
2024/02/22 02:00:31;;;;;;;4.18;3.70;;;;;;;5.54;66.44;99524.97;4863432;28;20748;-76
2024/02/22 02:02:59;;;;;;;4.95;4.07;;;;;;;5.47;66.23;99521.78;4860577;28;20030;-70
2024/02/22 02:05:25;;;;;;;4.28;3.88;;;;;;;5.53;66.53;99518.13;4934769;28;20101;-69
2024/02/22 02:07:51;;;;;;;5.82;4.22;;;;;;;5.43;66.63;99522.81;4915451;28;20035;-69
2024/02/22 02:10:17;;;;;;;5.32;4.28;;;;;;;5.08;68.03;99516.41;4939776;28;20046;-69
2024/02/22 02:12:42;;;;;;;5.32;3.25;;;;;;;5.36;67.40;99505.81;4918297;28;20266;-70
2024/02/22 02:15:08;;;;;;;5.80;4.28;;;;;;;5.59;66.33;99507.47;4938830;28;20042;-70
2024/02/22 02:17:34;;;;;;;3.95;2.92;;;;;;;5.56;66.33;99500.66;4924828;28;20035;-71
2024/02/22 02:20:07;;;;;;;6.40;3.08;;;;;;;5.35;67.45;99498.97;4914833;28;20105;-71
2024/02/22 02:23:00;;;;;;;4.65;3.63;;;;;;;5.30;67.79;99496.56;4931567;28;20072;-71
2024/02/22 02:25:28;;;;;;;4.35;3.25;;;;;;;4.93;68.77;99481.63;4939467;28;20760;-72
2024/02/22 02:27:54;;;;;;;7.53;3.35;;;;;;;5.13;68.48;99476.50;4916855;28;20130;-72
2024/02/22 02:30:19;;;;;;;3.83;2.67;;;;;;;5.71;66.20;99475.03;4921053;28;20043;-70
2024/02/22 02:32:45;;;;;;;4.32;3.03;;;;;;;5.61;66.71;99470.25;4931339;28;20035;-72
2024/02/22 02:35:10;;;;;;;3.28;2.45;;;;;;;5.64;66.21;99471.84;4937366;28;20129;-71
2024/02/22 02:37:36;;;;;;;3.72;2.70;;;;;;;5.76;66.07;99465.31;4932017;28;20026;-71
2024/02/22 02:40:02;;;;;;;3.22;2.55;;;;;;;5.12;67.90;99461.84;4939380;28;20035;-71
2024/02/22 02:42:27;;;;;;;3.08;2.47;;;;;;;5.66;66.30;99457.09;4939885;28;20166;-72
2024/02/22 02:44:53;;;;;;;4.70;2.92;;;;;;;5.87;66.03;99465.69;4928601;28;20647;-71
2024/02/22 02:47:18;;;;;;;4.35;2.60;;;;;;;5.45;67.32;99448.44;4925014;28;20093;-71
2024/02/22 02:49:44;;;;;;;3.38;2.08;;;;;;;5.65;66.48;99445.84;4928149;28;20121;-73
2024/02/22 02:52:09;;;;;;;3.25;2.10;;;;;;;5.82;65.85;99445.16;4906444;28;20050;-72
2024/02/22 02:54:35;;;;;;;3.95;2.70;;;;;;;5.30;67.83;99444.75;4930841;28;20805;-70
2024/02/22 02:57:00;;;;;;;4.80;2.85;;;;;;;5.59;66.96;99443.53;4920190;28;20654;-71
2024/02/22 02:59:26;;;;;;;3.35;2.22;;;;;;;6.02;65.38;99430.47;4940711;28;20050;-72
2024/02/22 03:01:51;;;;;;;3.92;2.53;;;;;;;6.11;64.69;99429.22;4931668;28;21435;-71
2024/02/22 03:04:17;;;;;;;3.55;2.40;;;;;;;5.95;65.30;99432.50;4929410;28;20035;-71
2024/02/22 03:06:48;;;;;;;4.03;2.40;;;;;;;6.00;65.55;99422.75;4897868;28;20266;-69
2024/02/22 03:09:14;;;;;;;3.50;2.15;;;;;;;5.69;66.04;99422.41;4862889;28;20032;-69
2024/02/22 03:11:44;;;;;;;3.25;2.50;;;;;;;5.99;65.48;99423.66;4848714;28;20718;-69
2024/02/22 03:14:09;;;;;;;3.55;2.70;;;;;;;5.60;66.69;99415.88;4876634;28;20031;-71
2024/02/22 03:16:38;;;;;;;4.45;2.95;;;;;;;5.65;66.75;99413.91;4878150;28;20480;-68
2024/02/22 03:19:04;;;;;;;3.70;3.08;;;;;;;5.51;66.89;99421.44;4886007;28;20392;-68
2024/02/22 03:21:30;;;;;;;3.28;2.60;;;;;;;5.44;67.19;99420.84;4942484;28;20042;-68
2024/02/22 03:23:55;;;;;;;5.57;3.47;;;;;;;5.77;66.23;99417.72;4932441;28;20934;-69
2024/02/22 03:26:23;;;;;;;4.72;2.95;;;;;;;6.02;65.88;99415.75;4944417;28;20228;-67
2024/02/22 03:28:52;;;;;;;3.65;3.00;;;;;;;5.90;66.20;99413.69;4916887;28;20118;-67
2024/02/22 03:31:18;;;;;;;5.32;3.15;;;;;;;6.13;65.32;99409.22;4927502;28;20046;-67
2024/02/22 03:33:44;;;;;;;5.47;3.42;;;;;;;6.05;65.25;99394.84;4933839;28;20066;-68
2024/02/22 03:36:10;;;;;;;6.88;3.72;;;;;;;6.08;65.20;99401.66;4926917;28;20150;-67
2024/02/22 03:38:37;;;;;;;3.97;2.92;;;;;;;6.02;65.26;99407.97;4943078;28;20045;-67
2024/02/22 03:41:04;;;;;;;6.05;3.85;;;;;;;6.07;65.56;99408.59;4937622;28;20039;-67
2024/02/22 03:43:29;;;;;;;6.10;4.00;;;;;;;5.62;66.93;99406.28;4926083;28;20539;-68
2024/02/22 03:45:55;;;;;;;5.93;3.50;;;;;;;5.63;67.47;99406.19;4913893;28;20046;-68
2024/02/22 03:48:21;;;;;;;7.20;4.32;;;;;;;6.08;65.71;99401.66;4942963;28;20299;-68
2024/02/22 03:50:46;;;;;;;6.35;4.47;;;;;;;6.12;65.43;99390.22;4932934;28;20097;-67
2024/02/22 03:53:12;;;;;;;6.55;3.88;;;;;;;6.22;65.23;99398.47;4945692;28;20030;-68
2024/02/22 03:55:37;;;;;;;6.95;5.00;;;;;;;5.78;66.65;99394.31;4942738;28;20476;-68
2024/02/22 03:58:06;;;;;;;6.97;4.20;;;;;;;5.81;66.75;99399.38;4933683;28;20105;-66
2024/02/22 04:00:33;;;;;;;7.28;4.00;;;;;;;5.86;66.81;99401.78;4942937;28;20045;-68
2024/02/22 04:02:58;;;;;;;7.53;4.47;;;;;;;6.07;65.62;99400.81;4935029;28;20038;-68
2024/02/22 04:05:25;;;;;;;8.18;4.35;;;;;;;6.21;65.40;99397.59;4941750;28;24284;-68
2024/02/22 04:07:50;;;;;;;5.78;3.28;;;;;;;6.24;64.97;99388.84;4935733;28;20535;-68
2024/02/22 04:10:16;;;;;;;7.32;4.03;;;;;;;6.07;65.55;99384.41;4943552;28;20066;-68
2024/02/22 04:12:41;;;;;;;6.28;3.78;;;;;;;6.15;65.46;99384.91;4925148;28;20161;-71
2024/02/22 04:15:07;;;;;;;6.53;3.85;;;;;;;6.33;64.68;99379.81;4940652;28;20134;-71
2024/02/22 04:17:33;;;;;;;7.65;3.90;;;;;;;6.07;65.81;99380.06;4945434;28;20141;-70
2024/02/22 04:20:00;;;;;;;7.80;4.80;;;;;;;6.08;65.83;99381.75;4933044;28;20117;-70
2024/02/22 04:22:25;;;;;;;5.13;3.28;;;;;;;6.27;65.57;99375.72;4940517;28;20034;-71
2024/02/22 04:24:51;;;;;;;6.20;3.80;;;;;;;6.39;64.97;99374.34;4931967;28;20030;-71
2024/02/22 04:27:17;;;;;;;8.50;3.63;;;;;;;6.15;65.41;99371.09;4922438;28;20073;-71
2024/02/22 04:29:42;;;;;;;8.20;3.25;;;;;;;6.33;65.13;99370.28;4939940;28;20097;-71
2024/02/22 04:32:08;;;;;;;6.78;3.35;;;;;;;6.11;66.09;99364.38;4914500;28;20053;-70
2024/02/22 04:34:33;;;;;;;6.85;3.42;;;;;;;6.27;65.32;99371.38;4943800;28;20122;-71
2024/02/22 04:37:03;;;;;;;6.35;3.42;;;;;;;6.18;65.90;99370.97;4928657;28;20023;-72
2024/02/22 04:39:29;;;;;;;5.18;3.85;;;;;;;6.32;65.30;99362.56;4907384;28;20097;-68
2024/02/22 04:41:54;;;;;;;6.70;2.92;;;;;;;6.31;65.26;99360.88;4909831;28;20114;-69
2024/02/22 04:44:20;;;;;;;5.38;2.55;;;;;;;6.20;65.38;99363.97;4923333;28;20121;-71
2024/02/22 04:46:45;;;;;;;6.38;3.50;;;;;;;5.91;66.41;99363.50;4939064;28;20094;-67
2024/02/22 04:49:11;;;;;;;5.57;3.00;;;;;;;6.58;64.65;99361.34;4935758;28;20034;-68
2024/02/22 04:51:36;;;;;;;6.78;3.22;;;;;;;6.57;64.63;99362.25;4917923;28;20066;-66
2024/02/22 04:54:02;;;;;;;5.78;2.72;;;;;;;6.27;65.12;99363.59;4919778;28;20049;-67
2024/02/22 04:56:28;;;;;;;5.93;2.70;;;;;;;6.65;64.49;99360.97;4941159;28;20132;-66
2024/02/22 04:58:55;;;;;;;6.18;2.90;;;;;;;6.52;64.42;99352.09;4930460;28;20030;-67
2024/02/22 05:01:21;;;;;;;6.30;3.03;;;;;;;6.37;65.10;99350.22;4941883;28;20062;-66
2024/02/22 05:03:47;;;;;;;5.38;2.67;;;;;;;6.58;65.11;99353.56;4912225;28;20050;-67
2024/02/22 05:06:13;;;;;;;7.10;2.80;;;;;;;6.48;64.83;99348.81;4912382;28;20062;-67
2024/02/22 05:08:39;;;;;;;4.72;2.58;;;;;;;6.55;64.45;99351.97;4932762;28;20034;-70
2024/02/22 05:11:08;;;;;;;5.80;2.65;;;;;;;6.59;64.25;99347.44;4930249;28;20039;-66
2024/02/22 05:13:34;;;;;;;6.68;3.47;;;;;;;6.56;64.88;99345.00;4945068;28;20067;-71
2024/02/22 05:15:59;;;;;;;4.80;2.65;;;;;;;6.65;64.41;99335.00;4931186;28;20047;-71
2024/02/22 05:18:24;;;;;;;5.88;3.28;;;;;;;6.65;64.91;99339.38;4944202;28;20045;-70
2024/02/22 05:20:51;;;;;;;7.53;3.60;;;;;;;6.43;65.17;99340.38;4935107;28;20038;-70
2024/02/22 05:23:16;;;;;;;6.90;3.05;;;;;;;6.56;65.23;99337.22;4939109;28;20102;-71
2024/02/22 05:25:42;;;;;;;7.45;3.28;;;;;;;5.81;67.44;99336.31;4938439;28;20492;-67
2024/02/22 05:28:08;;;;;;;7.40;3.95;;;;;;;6.34;66.25;99335.63;4918354;28;20049;-71
2024/02/22 05:30:34;;;;;;;6.00;3.13;;;;;;;6.26;66.33;99327.31;4923391;28;20076;-71
2024/02/22 05:32:59;;;;;;;6.32;3.47;;;;;;;6.53;65.41;99324.38;4933365;28;20041;-71
2024/02/22 05:35:25;;;;;;;11.30;4.03;;;;;;;6.49;65.72;99316.75;4939339;28;20043;-72
2024/02/22 05:37:51;;;;;;;12.57;3.85;;;;;;;6.66;64.82;99313.34;4944323;28;20039;-71
2024/02/22 05:40:16;;;;;;;10.20;4.03;;;;;;;6.66;64.61;99304.69;4888785;28;20047;-71
2024/02/22 05:42:43;;;;;;;11.50;4.57;;;;;;;6.66;64.95;99304.69;4911586;28;20027;-72
2024/02/22 05:45:09;;;;;;;9.70;3.85;;;;;;;6.54;65.17;99303.53;4906815;28;20022;-70
2024/02/22 05:47:35;;;;;;;14.40;4.55;;;;;;;6.40;65.77;99298.19;4916693;28;20164;-71
2024/02/22 05:50:03;;;;;;;10.88;4.20;;;;;;;6.52;65.80;99299.34;4911561;28;20731;-70
2024/02/22 05:52:29;;;;;;;11.65;3.90;;;;;;;6.68;65.00;99297.66;4877988;28;20128;-70
2024/02/22 05:54:55;;;;;;;12.45;3.95;;;;;;;6.06;66.45;99295.38;4870969;28;20925;-70
2024/02/22 05:57:21;;;;;;;14.40;5.18;;;;;;;6.42;66.21;99281.63;4869100;28;20088;-70
2024/02/22 05:59:46;;;;;;;12.13;4.47;;;;;;;6.57;65.40;99290.41;4864238;28;20050;-71
2024/02/22 06:02:13;;;;;;;14.52;4.68;;;;;;;6.55;65.82;99284.47;4839184;28;20387;-70
2024/02/22 06:04:39;;;;;;;10.23;4.45;;;;;;;6.65;64.98;99282.25;4913694;28;20035;-71
2024/02/22 06:07:06;;;;;;;7.38;3.35;;;;;;;6.63;65.22;99284.91;4929808;28;20471;-71
2024/02/22 06:09:31;;;;;;;12.18;5.05;;;;;;;6.22;65.97;99279.13;4938351;28;20026;-74
2024/02/22 06:11:57;;;;;;;9.90;4.70;;;;;;;6.66;65.40;99278.72;4935703;28;20069;-72
2024/02/22 06:14:23;;;;;;;16.33;4.90;;;;;;;6.44;65.86;99278.94;4939382;28;20038;-72
2024/02/22 06:16:48;;;;;;;10.70;3.67;;;;;;;6.62;65.03;99274.59;4937179;28;20050;-72
2024/02/22 06:19:14;;;;;;;12.57;3.90;;;;;;;6.60;65.46;99268.66;4929568;28;20516;-72
2024/02/22 06:21:39;;;;;;;10.98;4.30;;;;;;;6.85;64.56;99263.09;4922453;28;20051;-72
2024/02/22 06:24:08;;;;;;;13.38;4.10;;;;;;;6.53;65.06;99262.06;4930394;28;20058;-72
2024/02/22 06:26:34;;;;;;;9.70;4.15;;;;;;;6.51;65.49;99251.78;4926751;28;20045;-71
2024/02/22 06:29:00;;;;;;;11.57;4.20;;;;;;;6.81;65.02;99254.59;4900581;28;20034;-72
2024/02/22 06:31:26;;;;;;;11.43;3.72;;;;;;;6.84;64.39;99251.00;4938014;28;20522;-72
2024/02/22 06:33:52;;;;;;;11.68;5.22;;;;;;;7.04;64.11;99252.59;4939686;28;20684;-72
2024/02/22 06:36:18;;;;;;;9.43;3.88;;;;;;;6.90;64.52;99255.91;4929969;28;20842;-72
2024/02/22 06:38:45;;;;;;;8.73;3.60;;;;;;;6.96;64.47;99250.41;4944088;28;20552;-74
2024/02/22 06:41:12;;;;;;;12.70;3.80;;;;;;;6.85;64.56;99250.13;4913966;28;20038;-75
2024/02/22 06:43:41;;;;;;;10.93;3.90;;;;;;;6.68;65.22;99261.31;4927314;28;20473;-74
2024/02/22 06:46:06;;;;;;;12.13;4.20;;;;;;;6.45;65.61;99250.31;4934924;28;20043;-76
2024/02/22 06:48:32;;;;;;;13.98;4.45;;;;;;;6.79;64.93;99253.84;4942947;28;20121;-76
2024/02/22 06:50:59;;;;;;;9.55;3.40;;;;;;;6.95;64.60;99250.47;4910248;28;20039;-76
2024/02/22 06:53:24;;;;;;;9.18;3.28;;;;;;;6.74;65.20;99255.84;4918766;28;20085;-71
2024/02/22 06:55:50;;;;;;;11.55;3.65;;;;;;;6.90;64.79;99256.72;4944086;28;20046;-73
2024/02/22 06:58:15;;;;;;;11.90;3.83;;;;;;;6.90;64.26;99248.13;4932146;28;20100;-69
2024/02/22 07:00:41;;;;;;;10.73;4.07;;;;;;;6.93;64.67;99244.50;4942755;28;20042;-70
2024/02/22 07:03:07;;;;;;;11.52;4.15;;;;;;;6.85;64.44;99245.75;4931779;28;20026;-71
2024/02/22 07:05:35;;;;;;;9.90;3.35;;;;;;;7.00;64.23;99251.06;4942858;28;20560;-70
2024/02/22 07:08:00;;;;;;;12.90;3.95;;;;;;;6.83;64.77;99254.53;4941656;28;20031;-71
2024/02/22 07:10:26;;;;;;;10.10;3.33;;;;;;;6.89;64.96;99244.69;4935735;28;20039;-71
2024/02/22 07:12:51;;;;;;;11.85;4.32;;;;;;;6.79;65.05;99253.00;4943256;28;20050;-72
2024/02/22 07:15:17;;;;;;;9.15;3.42;;;;;;;6.54;66.54;99243.00;4928483;28;20082;-69
2024/02/22 07:17:44;;;;;;;6.70;2.53;;;;;;;6.89;65.23;99236.88;4942799;28;20043;-69
2024/02/22 07:20:11;;;;;;;12.85;3.35;;;;;;;6.17;67.13;99218.81;4912617;28;20034;-70
2024/02/22 07:22:36;;;;;;;8.10;3.03;;;;;;;6.68;66.09;99225.81;4938589;28;20045;-71
2024/02/22 07:25:02;;;;;;;10.55;3.10;;;;;;;6.73;66.01;99220.41;4923522;28;20027;-72
2024/02/22 07:27:28;;;;;;;8.48;2.50;;;;;;;6.87;65.12;99220.53;4908879;28;20039;-73
2024/02/22 07:29:53;;;;;;;6.07;2.95;;;;;;;6.76;66.00;99228.03;4917881;28;20054;-72
2024/02/22 07:32:19;;;;;;;7.72;2.80;;;;;;;6.99;65.03;99231.22;4929700;28;20037;-73
2024/02/22 07:34:44;;;;;;;8.85;2.90;;;;;;;6.72;65.83;99234.28;4939906;28;20047;-73
2024/02/22 07:37:11;;;;;;;6.65;2.13;;;;;;;6.74;66.02;99232.47;4932845;28;20047;-69
2024/02/22 07:39:37;;;;;;;6.75;1.98;;;;;;;6.47;66.26;99234.69;4940641;28;20053;-71
2024/02/22 07:42:03;;;;;;;10.85;3.13;;;;;;;6.69;66.75;99243.09;4939353;28;20038;-71
2024/02/22 07:44:29;;;;;;;6.50;2.58;;;;;;;6.31;66.75;99242.38;4899341;28;20205;-66
2024/02/22 07:46:54;;;;;;;6.07;2.53;;;;;;;6.63;66.43;99243.38;4902104;28;20053;-65
2024/02/22 07:49:21;;;;;;;5.50;2.67;;;;;;;6.24;67.70;99236.59;4923775;28;20045;-67
2024/02/22 07:51:47;;;;;;;6.00;2.55;;;;;;;6.83;66.08;99239.78;4938773;28;20026;-68
2024/02/22 07:54:12;;;;;;;7.50;2.88;;;;;;;6.56;66.57;99236.00;4914637;28;20034;-67
2024/02/22 07:56:39;;;;;;;5.88;2.40;;;;;;;6.74;66.22;99235.06;4940789;28;20113;-67
2024/02/22 07:59:05;;;;;;;4.72;2.08;;;;;;;6.76;66.08;99222.00;4916100;28;20042;-67
2024/02/22 08:01:31;;;;;;;9.10;2.47;;;;;;;6.94;65.94;99215.88;4884149;28;20465;-68
2024/02/22 08:03:56;;;;;;;9.20;2.42;;;;;;;6.74;66.09;99213.47;4941652;28;20588;-68
2024/02/22 08:06:22;;;;;;;5.25;1.58;;;;;;;7.06;65.56;99210.03;4913419;28;20037;-68
2024/02/22 08:08:47;;;;;;;7.60;3.38;;;;;;;7.11;65.13;99209.81;4934821;28;20039;-68
2024/02/22 08:11:13;;;;;;;4.50;1.85;;;;;;;7.09;64.74;99209.91;4884145;28;20679;-65
2024/02/22 08:13:39;;;;;;;9.93;2.40;;;;;;;7.41;64.13;99209.13;4925453;28;20035;-66
2024/02/22 08:16:07;;;;;;;4.57;1.70;;;;;;;7.45;64.51;99205.44;4941410;28;20062;-69
2024/02/22 08:18:36;;;;;;;4.28;2.40;;;;;;;7.52;64.15;99211.97;4931954;28;20030;-67
2024/02/22 08:21:03;;;;;;;5.50;1.92;;;;;;;7.51;63.82;99210.28;4926954;28;20046;-67
2024/02/22 08:23:29;;;;;;;5.82;1.90;;;;;;;7.16;65.14;99194.81;4921258;28;20030;-67
2024/02/22 08:25:57;;;;;;;8.07;2.22;;;;;;;7.39;64.43;99182.38;4944026;28;20739;-67
2024/02/22 08:28:24;;;;;;;2.67;1.40;;;;;;;7.24;64.71;99182.25;4932252;28;20048;-66
2024/02/22 08:30:49;;;;;;;5.63;3.00;;;;;;;6.99;65.85;99176.66;4943390;28;20050;-65
2024/02/22 08:33:15;;;;;;;5.22;2.40;;;;;;;7.70;64.50;99178.97;4930622;28;20042;-67
2024/02/22 08:35:41;;;;;;;5.00;2.15;;;;;;;7.29;64.15;99174.22;4941778;28;20074;-68
2024/02/22 08:38:09;;;;;;;4.95;2.50;;;;;;;7.69;63.74;99172.94;4939595;28;20102;-68
2024/02/22 08:40:40;;;;;;;5.57;2.08;;;;;;;7.01;65.95;99174.84;4931800;28;23266;-66
2024/02/22 08:43:07;;;;;;;7.60;2.65;;;;;;;7.09;65.51;99177.88;4938915;28;20039;-67
2024/02/22 08:45:33;;;;;;;7.03;3.45;;;;;;;6.70;66.37;99155.63;4929578;28;20860;-67
2024/02/22 08:47:59;;;;;;;7.70;3.00;;;;;;;7.22;65.19;99155.53;4935031;28;20035;-68
2024/02/22 08:50:25;;;;;;;9.23;4.30;;;;;;;7.44;64.49;99159.56;4928465;28;20409;-67
2024/02/22 08:52:51;;;;;;;8.63;3.65;;;;;;;7.03;66.09;99152.22;4936813;28;20153;-67
2024/02/22 08:55:17;;;;;;;9.20;3.45;;;;;;;7.04;66.18;99148.69;4927688;28;20577;-67
2024/02/22 08:57:42;;;;;;;8.60;3.67;;;;;;;7.04;65.85;99159.94;4906815;28;20679;-67
2024/02/22 09:00:11;;;;;;;10.48;4.30;;;;;;;7.05;65.97;99161.59;4913924;28;20044;-66
2024/02/22 09:02:38;;;;;;;13.32;5.05;;;;;;;7.02;65.95;99160.91;4901548;28;20042;-67
2024/02/22 09:05:06;;;;;;;8.88;3.97;;;;;;;7.20;65.89;99151.31;4884812;28;20041;-68
2024/02/22 09:07:36;;;;;;;11.00;4.80;;;;;;;7.67;65.04;99137.53;4892835;28;20058;-66
2024/02/22 09:10:08;;;;;;;14.85;4.72;;;;;;;7.69;64.92;99131.31;4884665;28;20673;-67
2024/02/22 09:12:35;;;;;;;8.80;4.88;;;;;;;7.66;64.76;99120.25;4854700;28;20453;-67
2024/02/22 09:15:03;;;;;;;15.75;6.30;;;;;;;7.33;64.65;99124.59;4864707;28;20622;-68
2024/02/22 09:17:29;;;;;;;10.23;6.20;;;;;;;7.51;64.50;99121.91;4839425;28;20540;-69
2024/02/22 09:19:55;;;;;;;16.50;6.25;;;;;;;7.08;65.17;99132.84;4859827;28;20173;-68
2024/02/22 09:22:21;;;;;;;17.15;7.28;;;;;;;7.41;65.26;99118.97;4892502;28;20054;-67
2024/02/22 09:24:46;;;;;;;22.33;7.05;;;;;;;8.23;64.22;99106.63;4938068;28;20043;-67
2024/02/22 09:27:15;;;;;;;16.80;7.47;;;;;;;8.33;62.20;99095.56;4933998;28;20138;-67
2024/02/22 09:29:42;;;;;;;14.00;6.00;;;;;;;8.52;61.58;99099.69;4927266;28;21130;-67
2024/02/22 09:32:09;;;;;;;20.38;5.45;;;;;;;8.15;61.76;99089.66;4939644;28;20129;-67
2024/02/22 09:34:36;;;;;;;16.90;5.15;;;;;;;8.53;60.69;99086.56;4928533;28;20038;-68
2024/02/22 09:37:03;;;;;;;18.25;6.05;;;;;;;9.15;60.35;99082.84;4937558;28;20583;-67
2024/02/22 09:39:32;;;;;;;14.10;4.88;;;;;;;8.47;60.88;99081.75;4925710;28;20684;-67
2024/02/22 09:41:58;;;;;;;12.80;5.68;;;;;;;8.57;58.59;99082.84;4920109;28;20035;-67
2024/02/22 09:44:24;;;;;;;11.32;4.60;;;;;;;8.64;59.40;99078.09;4928587;28;20083;-68
2024/02/22 09:46:53;;;;;;;16.65;5.93;;;;;;;8.33;60.47;99079.94;4939089;28;20207;-67
2024/02/22 09:49:28;;;;;;;13.18;4.93;;;;;;;7.84;61.08;99076.75;4935097;28;20051;-67
2024/02/22 09:51:54;;;;;;;11.07;3.70;;;;;;;8.57;59.29;99064.63;4937196;28;20038;-68
2024/02/22 09:54:21;;;;;;;16.80;3.65;;;;;;;8.59;58.55;99053.28;4938098;28;20488;-67
2024/02/22 09:56:50;;;;;;;11.73;3.72;;;;;;;8.71;59.18;99048.19;4930377;28;20126;-67
2024/02/22 09:59:17;;;;;;;19.38;3.15;;;;;;;8.63;58.83;99050.41;4921005;28;20034;-68
2024/02/22 10:01:43;;;;;;;13.98;3.15;;;;;;;8.64;58.51;99051.22;4927460;28;20981;-67
2024/02/22 10:04:11;;;;;;;17.50;3.85;;;;;;;8.15;59.11;99028.97;4935928;28;20672;-67
2024/02/22 10:06:37;;;;;;;9.55;2.78;;;;;;;8.53;58.61;99018.03;4924249;28;20039;-67
2024/02/22 10:09:04;;;;;;;11.23;3.28;;;;;;;9.19;58.01;99027.81;4937862;28;20684;-67
2024/02/22 10:11:31;;;;;;;9.93;2.28;;;;;;;8.72;57.79;99017.78;4927550;28;20035;-66
2024/02/22 10:14:01;;;;;;;8.43;2.72;;;;;;;8.92;56.99;99014.78;4937295;28;20035;-67
2024/02/22 10:16:28;;;;;;;11.23;3.30;;;;;;;8.88;57.13;99013.28;4931406;28;20043;-67
2024/02/22 10:19:00;;;;;;;9.35;1.98;;;;;;;9.69;56.44;99024.66;4921755;28;20558;-68
2024/02/22 10:21:29;;;;;;;14.13;3.53;;;;;;;8.88;56.44;99034.13;4931318;28;20051;-66
2024/02/22 10:23:56;;;;;;;8.82;1.85;;;;;;;8.90;56.85;99024.44;4933850;28;20047;-68
2024/02/22 10:26:26;;;;;;;12.65;2.63;;;;;;;8.75;57.85;99033.22;4934693;28;20625;-67
2024/02/22 10:28:54;;;;;;;19.98;3.20;;;;;;;8.49;57.03;99032.16;4932271;28;20898;-68
2024/02/22 10:31:19;;;;;;;22.48;2.08;;;;;;;8.94;56.68;99028.53;4933617;28;20210;-66
2024/02/22 10:33:47;;;;;;;12.55;2.42;;;;;;;8.14;57.41;99022.94;4931802;28;20504;-67
2024/02/22 10:36:14;;;;;;;11.02;2.15;;;;;;;8.68;57.92;99005.84;4934386;28;20046;-66
2024/02/22 10:38:39;;;;;;;6.10;2.25;;;;;;;8.79;56.37;98998.22;4933756;28;20153;-67
2024/02/22 10:41:09;;;;;;;13.68;2.95;;;;;;;8.72;56.27;98994.34;4935981;28;20386;-65
2024/02/22 10:43:38;;;;;;;18.10;2.63;;;;;;;9.15;55.71;98976.00;4932412;28;20041;-68
2024/02/22 10:46:10;;;;;;;14.20;2.38;;;;;;;9.31;55.30;98968.84;4916911;28;20051;-67
2024/02/22 10:48:37;;;;;;;10.65;1.98;;;;;;;9.02;53.48;98957.69;4902572;28;20042;-66
2024/02/22 10:51:04;;;;;;;8.93;1.98;;;;;;;9.57;53.46;98946.28;4927935;28;20045;-66
2024/02/22 10:53:38;;;;;;;16.45;2.85;;;;;;;10.77;50.96;98934.59;4935407;28;20476;-64
2024/02/22 10:56:04;;;;;;;8.23;2.20;;;;;;;10.68;50.24;98925.63;4933620;28;20123;-66
2024/02/22 10:58:33;;;;;;;10.77;3.47;;;;;;;10.06;51.12;98921.28;4915357;28;20043;-67
2024/02/22 11:01:06;;;;;;;6.90;1.95;;;;;;;10.08;52.27;98916.78;4916104;28;20051;-65
2024/02/22 11:03:33;;;;;;;9.60;2.55;;;;;;;10.94;50.34;98910.72;4931996;28;20393;-65
2024/02/22 11:06:03;;;;;;;12.05;2.28;;;;;;;11.24;48.92;98901.56;4929232;28;20047;-65
2024/02/22 11:08:29;;;;;;;8.10;2.95;;;;;;;11.11;48.72;98906.06;4930992;28;20035;-65
2024/02/22 11:11:08;;;;;;;10.88;2.08;;;;;;;10.92;48.68;98890.88;4899062;28;20559;-66
2024/02/22 11:13:34;;;;;;;10.13;2.00;;;;;;;10.46;49.29;98883.69;4927080;28;20047;-66
2024/02/22 11:16:00;;;;;;;14.80;2.60;;;;;;;10.07;49.47;98883.78;4930206;28;20066;-66
2024/02/22 11:18:25;;;;;;;8.95;2.45;;;;;;;10.33;48.68;98875.91;4934726;28;20031;-66
2024/02/22 11:20:51;;;;;;;14.93;1.60;;;;;;;9.96;48.92;98862.81;4922662;28;20182;-66
2024/02/22 11:23:22;;;;;;;7.38;1.83;;;;;;;10.55;48.53;98867.38;4937438;28;20074;-68
2024/02/22 11:25:50;;;;;;;8.63;2.27;;;;;;;11.02;48.21;98845.66;4911612;28;20050;-67
2024/02/22 11:28:15;;;;;;;8.35;1.20;;;;;;;11.30;47.18;98833.13;4934908;28;20050;-68
2024/02/22 11:30:44;;;;;;;8.48;4.20;;;;;;;11.34;47.53;98833.72;4927724;28;20535;-67
2024/02/22 11:33:10;;;;;;;7.85;2.28;;;;;;;11.84;46.42;98827.28;4934596;28;20565;-67
2024/02/22 11:35:36;;;;;;;8.93;2.28;;;;;;;10.47;48.61;98831.34;4931902;28;20708;-66